Terminal Aerodrome Forecast
Issued by NWS

Home | Current Version | Previous Version | Text Only | Print | Product List | Glossary On
Versions: 1 2 3 4 5 6 7 8 9 10 11 12 13 14 15 16 17 18 19 20 21 22 23 24 25 26 27 28 29 30 31
798
FTUS46 KMTR 210343 AAD
TAFSFO
TAF AMD
KSFO 210343Z 2104/2206 24012KT P6SM VCSH FEW035 SCT050 BKN060
      TEMPO 2104/2107 26020G30KT 3SM -RA SQ
     FM210900 24012KT P6SM VCSH FEW035 BKN050
     FM212100 22014KT P6SM BKN050
     FM220000 17013KT P6SM BKN050
     FM220300 11013KT P6SM -RA BKN035=

USA.gov is the U.S. government's official web portal to all federal, state and local government web resources and services.